sensor_id;sensor_type;location;lat;lon;timestamp;P1;durP1;ratioP1;P2;durP2;ratioP2
18338;SDS011;9295;44.484;11.240;2023-11-22T00:01:41;13.07;;;8.80;;
18338;SDS011;9295;44.484;11.240;2023-11-22T00:04:09;14.60;;;8.50;;
18338;SDS011;9295;44.484;11.240;2023-11-22T00:06:38;14.80;;;10.00;;
18338;SDS011;9295;44.484;11.240;2023-11-22T00:09:06;15.80;;;8.93;;
18338;SDS011;9295;44.484;11.240;2023-11-22T00:11:36;15.03;;;8.53;;
18338;SDS011;9295;44.484;11.240;2023-11-22T00:14:06;15.20;;;9.03;;
18338;SDS011;9295;44.484;11.240;2023-11-22T00:16:37;14.20;;;8.80;;
18338;SDS011;9295;44.484;11.240;2023-11-22T00:19:07;13.13;;;8.90;;
18338;SDS011;9295;44.484;11.240;2023-11-22T00:21:36;14.30;;;8.07;;
18338;SDS011;9295;44.484;11.240;2023-11-22T00:24:05;15.50;;;8.20;;
18338;SDS011;9295;44.484;11.240;2023-11-22T00:26:35;14.20;;;8.73;;
18338;SDS011;9295;44.484;11.240;2023-11-22T00:29:04;13.40;;;7.93;;
18338;SDS011;9295;44.484;11.240;2023-11-22T00:31:34;14.60;;;8.50;;
18338;SDS011;9295;44.484;11.240;2023-11-22T00:34:03;17.40;;;8.80;;
18338;SDS011;9295;44.484;11.240;2023-11-22T00:36:31;12.60;;;8.93;;
18338;SDS011;9295;44.484;11.240;2023-11-22T00:39:02;13.47;;;8.73;;
18338;SDS011;9295;44.484;11.240;2023-11-22T00:41:30;16.57;;;8.93;;
18338;SDS011;9295;44.484;11.240;2023-11-22T00:44:02;19.70;;;8.73;;
18338;SDS011;9295;44.484;11.240;2023-11-22T00:46:36;13.40;;;8.93;;
18338;SDS011;9295;44.484;11.240;2023-11-22T00:49:05;18.90;;;9.27;;
18338;SDS011;9295;44.484;11.240;2023-11-22T00:51:35;13.00;;;9.27;;
18338;SDS011;9295;44.484;11.240;2023-11-22T00:54:06;14.87;;;10.10;;
18338;SDS011;9295;44.484;11.240;2023-11-22T00:56:34;13.30;;;8.50;;
18338;SDS011;9295;44.484;11.240;2023-11-22T00:59:03;17.67;;;9.53;;
18338;SDS011;9295;44.484;11.240;2023-11-22T01:01:32;16.57;;;9.40;;
18338;SDS011;9295;44.484;11.240;2023-11-22T01:04:05;15.60;;;9.83;;
18338;SDS011;9295;44.484;11.240;2023-11-22T01:06:36;15.20;;;9.60;;
18338;SDS011;9295;44.484;11.240;2023-11-22T01:09:05;14.40;;;8.67;;
18338;SDS011;9295;44.484;11.240;2023-11-22T01:11:35;26.27;;;9.00;;
18338;SDS011;9295;44.484;11.240;2023-11-22T01:14:04;12.93;;;9.10;;
18338;SDS011;9295;44.484;11.240;2023-11-22T01:16:33;13.70;;;9.10;;
18338;SDS011;9295;44.484;11.240;2023-11-22T01:19:07;20.43;;;9.30;;
18338;SDS011;9295;44.484;11.240;2023-11-22T01:21:36;14.20;;;8.90;;
18338;SDS011;9295;44.484;11.240;2023-11-22T01:24:05;14.47;;;9.07;;
18338;SDS011;9295;44.484;11.240;2023-11-22T01:26:34;13.60;;;9.40;;
18338;SDS011;9295;44.484;11.240;2023-11-22T01:29:05;12.63;;;8.93;;
18338;SDS011;9295;44.484;11.240;2023-11-22T01:31:34;11.73;;;8.63;;
18338;SDS011;9295;44.484;11.240;2023-11-22T01:34:03;11.30;;;8.90;;
18338;SDS011;9295;44.484;11.240;2023-11-22T01:36:37;15.77;;;9.83;;
18338;SDS011;9295;44.484;11.240;2023-11-22T01:39:10;15.97;;;9.83;;
18338;SDS011;9295;44.484;11.240;2023-11-22T01:41:40;15.33;;;9.43;;
18338;SDS011;9295;44.484;11.240;2023-11-22T01:44:09;14.13;;;8.63;;
18338;SDS011;9295;44.484;11.240;2023-11-22T01:46:39;14.80;;;9.37;;
18338;SDS011;9295;44.484;11.240;2023-11-22T01:49:08;12.90;;;8.40;;
18338;SDS011;9295;44.484;11.240;2023-11-22T01:51:42;12.43;;;8.73;;
18338;SDS011;9295;44.484;11.240;2023-11-22T01:54:11;24.07;;;8.90;;
18338;SDS011;9295;44.484;11.240;2023-11-22T01:56:40;13.93;;;9.17;;
18338;SDS011;9295;44.484;11.240;2023-11-22T01:59:12;15.90;;;9.37;;
18338;SDS011;9295;44.484;11.240;2023-11-22T02:01:42;17.87;;;11.10;;
18338;SDS011;9295;44.484;11.240;2023-11-22T02:04:12;15.73;;;9.40;;
18338;SDS011;9295;44.484;11.240;2023-11-22T02:06:42;14.53;;;10.57;;
18338;SDS011;9295;44.484;11.240;2023-11-22T02:09:12;15.20;;;9.87;;
18338;SDS011;9295;44.484;11.240;2023-11-22T02:11:42;14.20;;;9.57;;
18338;SDS011;9295;44.484;11.240;2023-11-22T02:14:12;14.60;;;10.75;;
18338;SDS011;9295;44.484;11.240;2023-11-22T02:16:41;16.23;;;10.23;;
18338;SDS011;9295;44.484;11.240;2023-11-22T02:19:15;13.57;;;8.87;;
18338;SDS011;9295;44.484;11.240;2023-11-22T02:21:46;14.60;;;9.30;;
18338;SDS011;9295;44.484;11.240;2023-11-22T02:24:16;13.97;;;10.13;;
18338;SDS011;9295;44.484;11.240;2023-11-22T02:26:44;13.83;;;10.10;;
18338;SDS011;9295;44.484;11.240;2023-11-22T02:29:13;14.33;;;10.13;;
18338;SDS011;9295;44.484;11.240;2023-11-22T02:31:42;17.13;;;10.13;;
18338;SDS011;9295;44.484;11.240;2023-11-22T02:34:11;15.70;;;10.30;;
18338;SDS011;9295;44.484;11.240;2023-11-22T02:36:41;13.10;;;9.30;;
18338;SDS011;9295;44.484;11.240;2023-11-22T02:39:25;18.23;;;10.20;;
18338;SDS011;9295;44.484;11.240;2023-11-22T02:42:01;16.60;;;10.73;;
18338;SDS011;9295;44.484;11.240;2023-11-22T02:44:31;15.37;;;10.33;;
18338;SDS011;9295;44.484;11.240;2023-11-22T02:46:59;15.90;;;11.00;;
18338;SDS011;9295;44.484;11.240;2023-11-22T02:49:29;20.30;;;12.17;;
18338;SDS011;9295;44.484;11.240;2023-11-22T02:51:57;16.60;;;11.17;;
18338;SDS011;9295;44.484;11.240;2023-11-22T02:54:27;16.67;;;10.53;;
18338;SDS011;9295;44.484;11.240;2023-11-22T02:56:56;16.07;;;11.97;;
18338;SDS011;9295;44.484;11.240;2023-11-22T02:59:24;17.90;;;11.43;;
18338;SDS011;9295;44.484;11.240;2023-11-22T03:01:53;19.20;;;12.57;;
18338;SDS011;9295;44.484;11.240;2023-11-22T03:04:22;18.80;;;11.97;;
18338;SDS011;9295;44.484;11.240;2023-11-22T03:06:50;17.33;;;11.40;;
18338;SDS011;9295;44.484;11.240;2023-11-22T03:09:19;17.57;;;11.40;;
18338;SDS011;9295;44.484;11.240;2023-11-22T03:11:50;16.70;;;11.57;;
18338;SDS011;9295;44.484;11.240;2023-11-22T03:14:19;19.23;;;11.67;;
18338;SDS011;9295;44.484;11.240;2023-11-22T03:16:51;18.63;;;12.53;;
18338;SDS011;9295;44.484;11.240;2023-11-22T03:19:20;16.80;;;12.63;;
18338;SDS011;9295;44.484;11.240;2023-11-22T03:21:49;18.17;;;12.57;;
18338;SDS011;9295;44.484;11.240;2023-11-22T03:24:18;15.80;;;12.40;;
18338;SDS011;9295;44.484;11.240;2023-11-22T03:26:48;22.23;;;13.00;;
18338;SDS011;9295;44.484;11.240;2023-11-22T03:29:18;20.63;;;14.37;;
18338;SDS011;9295;44.484;11.240;2023-11-22T03:31:47;21.90;;;14.20;;
18338;SDS011;9295;44.484;11.240;2023-11-22T03:34:18;20.10;;;15.07;;
18338;SDS011;9295;44.484;11.240;2023-11-22T03:36:47;18.60;;;12.80;;
18338;SDS011;9295;44.484;11.240;2023-11-22T03:39:19;20.90;;;14.73;;
18338;SDS011;9295;44.484;11.240;2023-11-22T03:41:49;21.07;;;14.37;;
18338;SDS011;9295;44.484;11.240;2023-11-22T03:44:19;22.00;;;15.47;;
18338;SDS011;9295;44.484;11.240;2023-11-22T03:46:48;21.77;;;15.30;;
18338;SDS011;9295;44.484;11.240;2023-11-22T03:49:17;23.73;;;15.73;;
18338;SDS011;9295;44.484;11.240;2023-11-22T03:51:46;25.60;;;15.80;;
18338;SDS011;9295;44.484;11.240;2023-11-22T03:54:15;20.43;;;15.17;;
18338;SDS011;9295;44.484;11.240;2023-11-22T03:56:45;20.03;;;14.97;;
18338;SDS011;9295;44.484;11.240;2023-11-22T03:59:14;26.30;;;16.27;;
18338;SDS011;9295;44.484;11.240;2023-11-22T04:01:43;24.33;;;16.60;;
18338;SDS011;9295;44.484;11.240;2023-11-22T04:04:12;24.50;;;15.17;;
18338;SDS011;9295;44.484;11.240;2023-11-22T04:06:44;25.67;;;16.10;;
18338;SDS011;9295;44.484;11.240;2023-11-22T04:09:12;24.43;;;14.97;;
18338;SDS011;9295;44.484;11.240;2023-11-22T04:11:43;23.43;;;15.80;;
18338;SDS011;9295;44.484;11.240;2023-11-22T04:14:14;21.97;;;16.40;;
18338;SDS011;9295;44.484;11.240;2023-11-22T04:16:44;23.63;;;16.03;;
18338;SDS011;9295;44.484;11.240;2023-11-22T04:19:13;25.60;;;16.73;;
18338;SDS011;9295;44.484;11.240;2023-11-22T04:21:42;26.60;;;16.37;;
18338;SDS011;9295;44.484;11.240;2023-11-22T04:24:11;23.70;;;16.03;;
18338;SDS011;9295;44.484;11.240;2023-11-22T04:26:42;22.93;;;16.07;;
18338;SDS011;9295;44.484;11.240;2023-11-22T04:29:14;23.80;;;17.63;;
18338;SDS011;9295;44.484;11.240;2023-11-22T04:31:45;23.90;;;15.30;;
18338;SDS011;9295;44.484;11.240;2023-11-22T04:34:13;26.70;;;16.93;;
18338;SDS011;9295;44.484;11.240;2023-11-22T04:36:42;23.90;;;15.67;;
18338;SDS011;9295;44.484;11.240;2023-11-22T04:39:13;22.53;;;17.03;;
18338;SDS011;9295;44.484;11.240;2023-11-22T04:41:43;21.50;;;16.00;;
18338;SDS011;9295;44.484;11.240;2023-11-22T04:44:11;24.60;;;15.50;;
18338;SDS011;9295;44.484;11.240;2023-11-22T04:46:40;26.83;;;16.23;;
18338;SDS011;9295;44.484;11.240;2023-11-22T04:49:09;26.50;;;16.63;;
18338;SDS011;9295;44.484;11.240;2023-11-22T04:51:40;25.47;;;17.13;;
18338;SDS011;9295;44.484;11.240;2023-11-22T04:54:10;24.07;;;16.90;;
18338;SDS011;9295;44.484;11.240;2023-11-22T04:56:38;23.77;;;16.10;;
18338;SDS011;9295;44.484;11.240;2023-11-22T04:59:07;27.23;;;16.87;;
18338;SDS011;9295;44.484;11.240;2023-11-22T05:01:36;22.30;;;16.43;;
18338;SDS011;9295;44.484;11.240;2023-11-22T05:04:05;28.27;;;17.17;;
18338;SDS011;9295;44.484;11.240;2023-11-22T05:06:38;32.13;;;20.07;;
18338;SDS011;9295;44.484;11.240;2023-11-22T05:09:07;29.60;;;19.87;;
18338;SDS011;9295;44.484;11.240;2023-11-22T05:11:36;34.50;;;19.67;;
18338;SDS011;9295;44.484;11.240;2023-11-22T05:14:05;28.57;;;20.70;;
18338;SDS011;9295;44.484;11.240;2023-11-22T05:16:33;33.43;;;21.13;;
18338;SDS011;9295;44.484;11.240;2023-11-22T05:19:03;28.37;;;19.67;;
18338;SDS011;9295;44.484;11.240;2023-11-22T05:21:32;41.57;;;21.90;;
18338;SDS011;9295;44.484;11.240;2023-11-22T05:24:02;39.87;;;21.40;;
18338;SDS011;9295;44.484;11.240;2023-11-22T05:26:31;29.60;;;21.07;;
18338;SDS011;9295;44.484;11.240;2023-11-22T05:29:00;29.63;;;19.57;;
18338;SDS011;9295;44.484;11.240;2023-11-22T05:31:31;31.40;;;19.93;;
18338;SDS011;9295;44.484;11.240;2023-11-22T05:34:00;33.10;;;19.87;;
18338;SDS011;9295;44.484;11.240;2023-11-22T05:36:28;32.83;;;20.37;;
18338;SDS011;9295;44.484;11.240;2023-11-22T05:38:57;29.87;;;19.50;;
18338;SDS011;9295;44.484;11.240;2023-11-22T05:41:27;33.17;;;20.37;;
18338;SDS011;9295;44.484;11.240;2023-11-22T05:43:56;32.23;;;20.47;;
18338;SDS011;9295;44.484;11.240;2023-11-22T05:46:25;30.40;;;20.30;;
18338;SDS011;9295;44.484;11.240;2023-11-22T05:48:53;31.50;;;20.87;;
18338;SDS011;9295;44.484;11.240;2023-11-22T05:51:22;28.13;;;18.87;;
18338;SDS011;9295;44.484;11.240;2023-11-22T05:53:51;27.70;;;18.30;;
18338;SDS011;9295;44.484;11.240;2023-11-22T05:56:19;27.77;;;18.73;;
18338;SDS011;9295;44.484;11.240;2023-11-22T05:58:49;31.97;;;19.60;;
18338;SDS011;9295;44.484;11.240;2023-11-22T06:01:18;38.80;;;20.07;;
18338;SDS011;9295;44.484;11.240;2023-11-22T06:03:46;34.23;;;20.53;;
18338;SDS011;9295;44.484;11.240;2023-11-22T06:06:18;33.50;;;19.83;;
18338;SDS011;9295;44.484;11.240;2023-11-22T06:08:48;34.50;;;21.87;;
18338;SDS011;9295;44.484;11.240;2023-11-22T06:11:17;29.40;;;20.50;;
18338;SDS011;9295;44.484;11.240;2023-11-22T06:13:46;31.50;;;20.20;;
18338;SDS011;9295;44.484;11.240;2023-11-22T06:16:16;31.07;;;20.30;;
18338;SDS011;9295;44.484;11.240;2023-11-22T06:18:45;32.77;;;20.63;;
18338;SDS011;9295;44.484;11.240;2023-11-22T06:21:14;32.30;;;19.10;;
18338;SDS011;9295;44.484;11.240;2023-11-22T06:23:43;27.60;;;19.53;;
18338;SDS011;9295;44.484;11.240;2023-11-22T06:26:11;31.00;;;20.53;;
18338;SDS011;9295;44.484;11.240;2023-11-22T06:28:41;36.03;;;21.80;;
18338;SDS011;9295;44.484;11.240;2023-11-22T06:31:14;35.00;;;20.57;;
18338;SDS011;9295;44.484;11.240;2023-11-22T06:33:45;34.00;;;20.57;;
18338;SDS011;9295;44.484;11.240;2023-11-22T06:36:14;36.07;;;21.07;;
18338;SDS011;9295;44.484;11.240;2023-11-22T06:38:43;35.50;;;22.50;;
18338;SDS011;9295;44.484;11.240;2023-11-22T06:41:14;32.63;;;21.23;;
18338;SDS011;9295;44.484;11.240;2023-11-22T06:43:44;34.93;;;22.53;;
18338;SDS011;9295;44.484;11.240;2023-11-22T06:46:12;32.40;;;20.20;;
18338;SDS011;9295;44.484;11.240;2023-11-22T06:48:44;32.20;;;20.60;;
18338;SDS011;9295;44.484;11.240;2023-11-22T06:51:16;37.10;;;19.97;;
18338;SDS011;9295;44.484;11.240;2023-11-22T06:53:46;31.97;;;20.10;;
18338;SDS011;9295;44.484;11.240;2023-11-22T06:56:15;29.77;;;20.20;;
18338;SDS011;9295;44.484;11.240;2023-11-22T06:58:45;38.43;;;19.60;;
18338;SDS011;9295;44.484;11.240;2023-11-22T07:01:13;29.70;;;18.67;;
18338;SDS011;9295;44.484;11.240;2023-11-22T07:03:45;32.73;;;18.97;;
18338;SDS011;9295;44.484;11.240;2023-11-22T07:06:13;28.83;;;19.57;;
18338;SDS011;9295;44.484;11.240;2023-11-22T07:08:43;28.53;;;19.17;;
18338;SDS011;9295;44.484;11.240;2023-11-22T07:11:12;35.23;;;21.00;;
18338;SDS011;9295;44.484;11.240;2023-11-22T07:13:43;26.30;;;17.87;;
18338;SDS011;9295;44.484;11.240;2023-11-22T07:16:14;27.77;;;19.50;;
18338;SDS011;9295;44.484;11.240;2023-11-22T07:18:44;34.47;;;19.80;;
18338;SDS011;9295;44.484;11.240;2023-11-22T07:21:13;31.03;;;18.93;;
18338;SDS011;9295;44.484;11.240;2023-11-22T07:23:42;31.13;;;19.60;;
18338;SDS011;9295;44.484;11.240;2023-11-22T07:26:12;25.07;;;17.50;;
18338;SDS011;9295;44.484;11.240;2023-11-22T07:28:43;31.80;;;19.67;;
18338;SDS011;9295;44.484;11.240;2023-11-22T07:31:12;27.03;;;18.73;;
18338;SDS011;9295;44.484;11.240;2023-11-22T07:33:41;25.90;;;18.00;;
18338;SDS011;9295;44.484;11.240;2023-11-22T07:36:11;29.27;;;18.80;;
18338;SDS011;9295;44.484;11.240;2023-11-22T07:38:41;29.43;;;17.80;;
18338;SDS011;9295;44.484;11.240;2023-11-22T07:41:10;26.67;;;18.73;;
18338;SDS011;9295;44.484;11.240;2023-11-22T07:43:38;34.17;;;19.50;;
18338;SDS011;9295;44.484;11.240;2023-11-22T07:46:07;31.77;;;19.10;;
18338;SDS011;9295;44.484;11.240;2023-11-22T07:48:40;29.80;;;20.40;;
18338;SDS011;9295;44.484;11.240;2023-11-22T07:51:12;29.60;;;19.37;;
18338;SDS011;9295;44.484;11.240;2023-11-22T07:53:42;29.43;;;19.50;;
18338;SDS011;9295;44.484;11.240;2023-11-22T07:56:11;32.33;;;21.73;;
18338;SDS011;9295;44.484;11.240;2023-11-22T07:58:42;33.57;;;21.53;;
18338;SDS011;9295;44.484;11.240;2023-11-22T08:01:10;38.93;;;24.20;;
18338;SDS011;9295;44.484;11.240;2023-11-22T08:03:40;35.10;;;23.90;;
18338;SDS011;9295;44.484;11.240;2023-11-22T08:06:15;31.97;;;22.57;;
18338;SDS011;9295;44.484;11.240;2023-11-22T08:08:44;34.60;;;20.80;;
18338;SDS011;9295;44.484;11.240;2023-11-22T08:11:13;27.93;;;19.97;;
18338;SDS011;9295;44.484;11.240;2023-11-22T08:13:42;32.23;;;21.03;;
18338;SDS011;9295;44.484;11.240;2023-11-22T08:16:12;27.70;;;20.00;;
18338;SDS011;9295;44.484;11.240;2023-11-22T08:18:41;31.53;;;20.70;;
18338;SDS011;9295;44.484;11.240;2023-11-22T08:21:16;26.63;;;18.90;;
18338;SDS011;9295;44.484;11.240;2023-11-22T08:23:45;34.80;;;21.30;;
18338;SDS011;9295;44.484;11.240;2023-11-22T08:26:15;31.07;;;19.93;;
18338;SDS011;9295;44.484;11.240;2023-11-22T08:28:45;31.40;;;20.50;;
18338;SDS011;9295;44.484;11.240;2023-11-22T08:31:14;34.00;;;19.90;;
18338;SDS011;9295;44.484;11.240;2023-11-22T08:33:44;29.47;;;19.90;;
18338;SDS011;9295;44.484;11.240;2023-11-22T08:36:16;32.77;;;20.83;;
18338;SDS011;9295;44.484;11.240;2023-11-22T08:38:46;31.77;;;21.10;;
18338;SDS011;9295;44.484;11.240;2023-11-22T08:41:15;30.20;;;21.37;;
18338;SDS011;9295;44.484;11.240;2023-11-22T08:43:43;30.57;;;19.43;;
18338;SDS011;9295;44.484;11.240;2023-11-22T08:46:14;38.50;;;20.50;;
18338;SDS011;9295;44.484;11.240;2023-11-22T08:48:43;40.40;;;20.47;;
18338;SDS011;9295;44.484;11.240;2023-11-22T08:51:12;24.07;;;18.23;;
18338;SDS011;9295;44.484;11.240;2023-11-22T08:53:43;29.80;;;19.93;;
18338;SDS011;9295;44.484;11.240;2023-11-22T08:56:12;36.00;;;20.70;;
18338;SDS011;9295;44.484;11.240;2023-11-22T08:58:42;29.53;;;19.00;;
18338;SDS011;9295;44.484;11.240;2023-11-22T09:01:11;30.37;;;19.00;;
18338;SDS011;9295;44.484;11.240;2023-11-22T09:03:41;31.27;;;18.53;;
18338;SDS011;9295;44.484;11.240;2023-11-22T09:06:13;27.23;;;18.40;;
18338;SDS011;9295;44.484;11.240;2023-11-22T09:08:44;25.00;;;15.77;;
18338;SDS011;9295;44.484;11.240;2023-11-22T09:11:16;26.87;;;16.80;;
18338;SDS011;9295;44.484;11.240;2023-11-22T09:13:49;31.40;;;18.93;;
18338;SDS011;9295;44.484;11.240;2023-11-22T09:16:17;29.43;;;18.60;;
18338;SDS011;9295;44.484;11.240;2023-11-22T09:18:49;26.17;;;17.73;;
18338;SDS011;9295;44.484;11.240;2023-11-22T09:21:17;31.30;;;20.20;;
18338;SDS011;9295;44.484;11.240;2023-11-22T09:23:49;29.07;;;17.77;;
18338;SDS011;9295;44.484;11.240;2023-11-22T09:26:17;30.93;;;19.73;;
18338;SDS011;9295;44.484;11.240;2023-11-22T09:28:46;33.77;;;19.47;;
18338;SDS011;9295;44.484;11.240;2023-11-22T09:31:15;26.23;;;18.67;;
18338;SDS011;9295;44.484;11.240;2023-11-22T09:33:47;28.27;;;20.20;;
18338;SDS011;9295;44.484;11.240;2023-11-22T09:36:15;29.63;;;20.90;;
18338;SDS011;9295;44.484;11.240;2023-11-22T09:38:45;28.20;;;18.40;;
18338;SDS011;9295;44.484;11.240;2023-11-22T09:41:15;26.23;;;18.30;;
18338;SDS011;9295;44.484;11.240;2023-11-22T09:43:46;28.93;;;18.70;;
18338;SDS011;9295;44.484;11.240;2023-11-22T09:46:16;30.37;;;19.63;;
18338;SDS011;9295;44.484;11.240;2023-11-22T09:48:47;29.77;;;19.00;;
18338;SDS011;9295;44.484;11.240;2023-11-22T09:51:20;31.63;;;18.80;;
18338;SDS011;9295;44.484;11.240;2023-11-22T09:53:55;30.00;;;19.57;;
18338;SDS011;9295;44.484;11.240;2023-11-22T09:56:27;27.13;;;17.60;;
18338;SDS011;9295;44.484;11.240;2023-11-22T09:58:57;29.93;;;18.47;;
18338;SDS011;9295;44.484;11.240;2023-11-22T10:01:28;27.30;;;17.30;;
18338;SDS011;9295;44.484;11.240;2023-11-22T10:04:05;26.80;;;17.80;;
18338;SDS011;9295;44.484;11.240;2023-11-22T10:06:34;26.07;;;18.17;;
18338;SDS011;9295;44.484;11.240;2023-11-22T10:09:04;27.83;;;16.63;;
18338;SDS011;9295;44.484;11.240;2023-11-22T10:11:37;25.50;;;17.63;;
18338;SDS011;9295;44.484;11.240;2023-11-22T10:14:09;26.50;;;17.80;;
18338;SDS011;9295;44.484;11.240;2023-11-22T10:16:38;28.00;;;17.20;;
18338;SDS011;9295;44.484;11.240;2023-11-22T10:19:07;28.93;;;18.90;;
18338;SDS011;9295;44.484;11.240;2023-11-22T10:21:41;28.10;;;18.80;;
18338;SDS011;9295;44.484;11.240;2023-11-22T10:24:09;34.23;;;18.33;;
18338;SDS011;9295;44.484;11.240;2023-11-22T10:26:39;28.17;;;17.90;;
18338;SDS011;9295;44.484;11.240;2023-11-22T10:29:08;25.87;;;18.80;;
18338;SDS011;9295;44.484;11.240;2023-11-22T10:31:37;33.40;;;17.77;;
18338;SDS011;9295;44.484;11.240;2023-11-22T10:34:08;26.47;;;15.97;;
18338;SDS011;9295;44.484;11.240;2023-11-22T10:36:37;25.90;;;17.00;;
18338;SDS011;9295;44.484;11.240;2023-11-22T10:39:07;29.20;;;16.27;;
18338;SDS011;9295;44.484;11.240;2023-11-22T10:41:43;22.13;;;14.47;;
18338;SDS011;9295;44.484;11.240;2023-11-22T10:44:19;24.70;;;15.37;;
18338;SDS011;9295;44.484;11.240;2023-11-22T10:46:49;21.03;;;14.00;;
18338;SDS011;9295;44.484;11.240;2023-11-22T10:49:19;24.63;;;14.33;;
18338;SDS011;9295;44.484;11.240;2023-11-22T10:51:50;20.90;;;14.13;;
18338;SDS011;9295;44.484;11.240;2023-11-22T10:54:20;21.47;;;14.40;;
18338;SDS011;9295;44.484;11.240;2023-11-22T10:56:54;23.13;;;13.73;;
18338;SDS011;9295;44.484;11.240;2023-11-22T10:59:25;23.80;;;15.67;;
18338;SDS011;9295;44.484;11.240;2023-11-22T11:01:56;29.07;;;16.00;;
18338;SDS011;9295;44.484;11.240;2023-11-22T11:04:34;25.30;;;16.07;;
18338;SDS011;9295;44.484;11.240;2023-11-22T11:07:12;25.87;;;16.53;;
18338;SDS011;9295;44.484;11.240;2023-11-22T11:09:42;28.83;;;17.47;;
18338;SDS011;9295;44.484;11.240;2023-11-22T11:12:15;25.27;;;17.33;;
18338;SDS011;9295;44.484;11.240;2023-11-22T11:14:44;23.73;;;16.77;;
18338;SDS011;9295;44.484;11.240;2023-11-22T11:17:14;26.73;;;16.50;;
18338;SDS011;9295;44.484;11.240;2023-11-22T11:19:43;27.70;;;17.23;;
18338;SDS011;9295;44.484;11.240;2023-11-22T11:22:12;27.93;;;16.80;;
18338;SDS011;9295;44.484;11.240;2023-11-22T11:24:43;23.70;;;16.30;;
18338;SDS011;9295;44.484;11.240;2023-11-22T11:27:17;28.37;;;16.93;;
18338;SDS011;9295;44.484;11.240;2023-11-22T11:29:46;26.57;;;17.13;;
18338;SDS011;9295;44.484;11.240;2023-11-22T11:32:15;23.97;;;16.90;;
18338;SDS011;9295;44.484;11.240;2023-11-22T11:34:58;33.90;;;17.87;;
18338;SDS011;9295;44.484;11.240;2023-11-22T11:37:33;24.90;;;17.27;;
18338;SDS011;9295;44.484;11.240;2023-11-22T11:40:12;27.50;;;17.00;;
18338;SDS011;9295;44.484;11.240;2023-11-22T11:42:55;19.80;;;13.63;;
18338;SDS011;9295;44.484;11.240;2023-11-22T11:45:24;30.20;;;14.10;;
18338;SDS011;9295;44.484;11.240;2023-11-22T11:47:53;24.17;;;14.67;;
18338;SDS011;9295;44.484;11.240;2023-11-22T11:50:21;21.23;;;14.30;;
18338;SDS011;9295;44.484;11.240;2023-11-22T11:52:50;24.80;;;14.80;;
18338;SDS011;9295;44.484;11.240;2023-11-22T11:55:19;21.57;;;13.90;;
18338;SDS011;9295;44.484;11.240;2023-11-22T11:57:48;21.33;;;14.03;;
18338;SDS011;9295;44.484;11.240;2023-11-22T12:00:18;20.67;;;12.90;;
18338;SDS011;9295;44.484;11.240;2023-11-22T12:02:48;17.63;;;12.47;;
18338;SDS011;9295;44.484;11.240;2023-11-22T12:05:18;22.60;;;10.43;;
18338;SDS011;9295;44.484;11.240;2023-11-22T12:07:47;22.00;;;12.10;;
18338;SDS011;9295;44.484;11.240;2023-11-22T12:10:16;17.10;;;12.67;;
18338;SDS011;9295;44.484;11.240;2023-11-22T12:12:44;16.80;;;11.37;;
18338;SDS011;9295;44.484;11.240;2023-11-22T12:15:13;20.00;;;10.47;;
18338;SDS011;9295;44.484;11.240;2023-11-22T12:17:43;17.00;;;10.60;;
18338;SDS011;9295;44.484;11.240;2023-11-22T12:20:13;20.93;;;10.37;;
18338;SDS011;9295;44.484;11.240;2023-11-22T12:22:46;17.33;;;9.77;;
18338;SDS011;9295;44.484;11.240;2023-11-22T12:25:15;19.60;;;10.53;;
18338;SDS011;9295;44.484;11.240;2023-11-22T12:27:44;13.30;;;9.20;;
18338;SDS011;9295;44.484;11.240;2023-11-22T12:30:27;17.13;;;10.27;;
18338;SDS011;9295;44.484;11.240;2023-11-22T12:33:05;16.93;;;10.10;;
18338;SDS011;9295;44.484;11.240;2023-11-22T12:35:35;17.30;;;10.87;;
18338;SDS011;9295;44.484;11.240;2023-11-22T12:38:05;15.83;;;9.47;;
18338;SDS011;9295;44.484;11.240;2023-11-22T12:40:37;21.30;;;9.60;;
18338;SDS011;9295;44.484;11.240;2023-11-22T12:43:18;21.50;;;10.10;;
18338;SDS011;9295;44.484;11.240;2023-11-22T12:45:47;15.13;;;8.87;;
18338;SDS011;9295;44.484;11.240;2023-11-22T12:48:29;17.90;;;9.97;;
18338;SDS011;9295;44.484;11.240;2023-11-22T12:51:00;15.83;;;9.23;;
18338;SDS011;9295;44.484;11.240;2023-11-22T12:53:28;15.83;;;10.10;;
18338;SDS011;9295;44.484;11.240;2023-11-22T12:55:59;17.10;;;9.60;;
18338;SDS011;9295;44.484;11.240;2023-11-22T12:58:29;14.70;;;8.80;;
18338;SDS011;9295;44.484;11.240;2023-11-22T13:00:57;14.23;;;9.40;;
18338;SDS011;9295;44.484;11.240;2023-11-22T13:03:31;17.60;;;8.67;;
18338;SDS011;9295;44.484;11.240;2023-11-22T13:06:00;14.43;;;8.40;;
18338;SDS011;9295;44.484;11.240;2023-11-22T13:08:29;13.17;;;6.87;;
18338;SDS011;9295;44.484;11.240;2023-11-22T13:10:59;14.80;;;7.97;;
18338;SDS011;9295;44.484;11.240;2023-11-22T13:13:28;11.30;;;7.53;;
18338;SDS011;9295;44.484;11.240;2023-11-22T13:15:58;12.10;;;7.20;;
18338;SDS011;9295;44.484;11.240;2023-11-22T13:18:27;16.20;;;7.03;;
18338;SDS011;9295;44.484;11.240;2023-11-22T13:20:57;9.77;;;6.00;;
18338;SDS011;9295;44.484;11.240;2023-11-22T13:23:25;10.60;;;6.07;;
18338;SDS011;9295;44.484;11.240;2023-11-22T13:25:54;12.97;;;6.40;;
18338;SDS011;9295;44.484;11.240;2023-11-22T13:28:23;12.53;;;6.80;;
18338;SDS011;9295;44.484;11.240;2023-11-22T13:30:52;16.17;;;7.53;;
18338;SDS011;9295;44.484;11.240;2023-11-22T13:33:20;12.83;;;6.97;;
18338;SDS011;9295;44.484;11.240;2023-11-22T13:35:51;14.00;;;7.03;;
18338;SDS011;9295;44.484;11.240;2023-11-22T13:38:21;10.80;;;6.27;;
18338;SDS011;9295;44.484;11.240;2023-11-22T13:40:50;21.43;;;6.00;;
18338;SDS011;9295;44.484;11.240;2023-11-22T13:43:19;17.90;;;5.30;;
18338;SDS011;9295;44.484;11.240;2023-11-22T13:45:48;8.70;;;5.00;;
18338;SDS011;9295;44.484;11.240;2023-11-22T13:48:17;11.20;;;5.37;;
18338;SDS011;9295;44.484;11.240;2023-11-22T13:50:46;10.53;;;5.20;;
18338;SDS011;9295;44.484;11.240;2023-11-22T13:53:19;19.73;;;5.60;;
18338;SDS011;9295;44.484;11.240;2023-11-22T13:55:50;10.83;;;5.53;;
18338;SDS011;9295;44.484;11.240;2023-11-22T13:58:20;21.50;;;5.17;;
18338;SDS011;9295;44.484;11.240;2023-11-22T14:00:49;11.17;;;3.47;;
18338;SDS011;9295;44.484;11.240;2023-11-22T14:03:21;9.50;;;2.30;;
18338;SDS011;9295;44.484;11.240;2023-11-22T14:05:50;9.73;;;2.57;;
18338;SDS011;9295;44.484;11.240;2023-11-22T14:08:21;8.80;;;2.10;;
18338;SDS011;9295;44.484;11.240;2023-11-22T14:10:52;8.60;;;2.77;;
18338;SDS011;9295;44.484;11.240;2023-11-22T14:13:22;9.27;;;2.10;;
18338;SDS011;9295;44.484;11.240;2023-11-22T14:15:51;5.57;;;2.50;;
18338;SDS011;9295;44.484;11.240;2023-11-22T14:18:19;8.30;;;2.60;;
18338;SDS011;9295;44.484;11.240;2023-11-22T14:20:48;8.67;;;2.30;;
18338;SDS011;9295;44.484;11.240;2023-11-22T14:23:20;11.70;;;2.50;;
18338;SDS011;9295;44.484;11.240;2023-11-22T14:25:49;9.57;;;2.13;;
18338;SDS011;9295;44.484;11.240;2023-11-22T14:28:19;12.23;;;3.23;;
18338;SDS011;9295;44.484;11.240;2023-11-22T14:30:50;17.70;;;3.20;;
18338;SDS011;9295;44.484;11.240;2023-11-22T14:33:21;10.33;;;2.70;;
18338;SDS011;9295;44.484;11.240;2023-11-22T14:35:50;9.13;;;2.80;;
18338;SDS011;9295;44.484;11.240;2023-11-22T14:38:19;11.50;;;3.20;;
18338;SDS011;9295;44.484;11.240;2023-11-22T14:40:49;12.80;;;2.40;;
18338;SDS011;9295;44.484;11.240;2023-11-22T14:43:19;12.60;;;3.17;;